createdAt,value
2022-11-29T00:00:12.823Z,0.00
2022-11-29T00:01:12.779Z,0.00
2022-11-29T00:02:12.980Z,0.00
2022-11-29T00:03:12.848Z,0.00
2022-11-29T00:04:12.762Z,0.00
2022-11-29T00:05:12.761Z,0.00
2022-11-29T00:06:12.754Z,0.00
2022-11-29T00:07:12.716Z,0.00
2022-11-29T00:08:12.716Z,0.00
2022-11-29T00:09:12.697Z,0.00
2022-11-29T00:10:12.692Z,0.00
2022-11-29T00:11:12.663Z,0.00
2022-11-29T00:12:12.689Z,0.00
2022-11-29T00:13:12.660Z,0.00
2022-11-29T00:14:12.656Z,0.00
2022-11-29T00:15:12.625Z,0.00
2022-11-29T00:16:12.709Z,0.00
2022-11-29T00:17:12.632Z,0.00
2022-11-29T00:18:12.604Z,0.00
2022-11-29T00:19:12.589Z,0.00
2022-11-29T00:20:12.588Z,0.00
2022-11-29T00:21:12.564Z,0.00
2022-11-29T00:22:12.597Z,0.00
2022-11-29T00:23:12.537Z,0.00
2022-11-29T00:24:12.553Z,0.00
2022-11-29T00:25:12.530Z,0.00
2022-11-29T00:26:12.520Z,0.00
2022-11-29T00:27:12.510Z,0.00
2022-11-29T00:28:12.524Z,0.00
2022-11-29T00:29:12.480Z,0.00
2022-11-29T00:30:12.536Z,0.00
2022-11-29T00:31:12.533Z,0.00
2022-11-29T00:32:12.466Z,0.00
2022-11-29T00:33:12.471Z,0.00
2022-11-29T00:34:12.434Z,0.00
2022-11-29T00:35:12.419Z,0.00
2022-11-29T00:36:12.433Z,0.00
2022-11-29T00:37:12.416Z,0.00
2022-11-29T00:38:12.400Z,0.00
2022-11-29T00:39:12.389Z,0.00
2022-11-29T00:40:12.384Z,0.00
2022-11-29T00:41:12.355Z,0.00
2022-11-29T00:42:12.342Z,0.00
2022-11-29T00:43:12.337Z,0.00
2022-11-29T00:44:18.375Z,0.00
2022-11-29T00:45:12.323Z,0.00
2022-11-29T00:46:12.382Z,0.00
2022-11-29T00:47:12.288Z,0.00
2022-11-29T00:48:12.302Z,0.00
2022-11-29T00:49:12.275Z,0.00
2022-11-29T00:50:12.282Z,0.00
2022-11-29T00:51:12.255Z,0.00
2022-11-29T00:52:12.248Z,0.00
2022-11-29T00:53:12.230Z,0.00
2022-11-29T00:54:12.228Z,0.00
2022-11-29T00:55:12.202Z,0.00
2022-11-29T00:56:12.227Z,0.00
2022-11-29T00:57:12.183Z,0.00
2022-11-29T00:58:12.205Z,0.00
2022-11-29T00:59:12.159Z,0.00
2022-11-29T01:00:12.163Z,0.00
2022-11-29T01:01:12.273Z,0.00
2022-11-29T01:02:12.181Z,0.00
2022-11-29T01:03:12.131Z,0.00
2022-11-29T01:04:12.143Z,0.00
2022-11-29T01:05:12.141Z,0.00
2022-11-29T01:06:12.118Z,0.00
2022-11-29T01:07:12.075Z,0.00
2022-11-29T01:08:12.111Z,0.00
2022-11-29T01:09:12.063Z,0.00
2022-11-29T01:10:12.059Z,0.00
2022-11-29T01:11:12.028Z,0.00
2022-11-29T01:12:12.056Z,0.00
2022-11-29T01:13:12.047Z,0.00
2022-11-29T01:14:12.052Z,0.00
2022-11-29T01:15:12.031Z,0.00
2022-11-29T01:16:11.999Z,0.00
2022-11-29T01:17:11.975Z,0.00
2022-11-29T01:18:11.965Z,0.00
2022-11-29T01:19:11.974Z,0.00
2022-11-29T01:20:11.965Z,0.00
2022-11-29T01:21:11.947Z,0.00
2022-11-29T01:22:11.925Z,0.00
2022-11-29T01:23:11.904Z,0.00
2022-11-29T01:24:11.913Z,0.00
2022-11-29T01:25:11.913Z,0.00
2022-11-29T01:26:11.884Z,0.00
2022-11-29T01:27:11.865Z,0.00
2022-11-29T01:28:11.877Z,0.00
2022-11-29T01:29:11.842Z,0.00
2022-11-29T01:30:11.868Z,0.00
2022-11-29T01:31:11.848Z,0.00
2022-11-29T01:32:11.830Z,0.00
2022-11-29T01:33:11.807Z,0.00
2022-11-29T01:34:11.801Z,0.00
2022-11-29T01:35:11.806Z,0.00
2022-11-29T01:36:11.785Z,0.00
2022-11-29T01:37:11.773Z,0.00
2022-11-29T01:38:11.766Z,0.00
2022-11-29T01:39:11.736Z,0.00
2022-11-29T01:40:11.758Z,0.00
2022-11-29T01:41:11.728Z,0.00
2022-11-29T01:42:11.734Z,0.00
2022-11-29T01:43:11.724Z,0.00
2022-11-29T01:44:11.691Z,0.00
2022-11-29T01:45:11.761Z,0.00
2022-11-29T01:46:11.724Z,0.00
2022-11-29T01:47:11.656Z,0.00
2022-11-29T01:48:11.659Z,0.00
2022-11-29T01:49:11.639Z,0.00
2022-11-29T01:50:11.650Z,0.00
2022-11-29T01:51:11.616Z,0.00
2022-11-29T01:52:11.612Z,0.00
2022-11-29T01:53:11.614Z,0.00
2022-11-29T01:54:11.596Z,0.00
2022-11-29T01:55:11.581Z,0.00
2022-11-29T01:56:11.598Z,0.00
2022-11-29T01:57:11.562Z,0.00
2022-11-29T01:58:11.569Z,0.00
2022-11-29T01:59:11.528Z,0.00
2022-11-29T02:00:11.533Z,0.00
2022-11-29T02:01:11.540Z,0.00
2022-11-29T02:02:11.539Z,0.00
2022-11-29T02:03:11.484Z,0.00
2022-11-29T02:04:11.501Z,0.00
2022-11-29T02:05:11.479Z,0.00
2022-11-29T02:06:11.455Z,0.00
2022-11-29T02:07:11.443Z,0.00
2022-11-29T02:08:11.434Z,0.00
2022-11-29T02:09:11.423Z,0.00
2022-11-29T02:10:11.436Z,0.00
2022-11-29T02:11:11.395Z,0.00
2022-11-29T02:12:11.421Z,0.00
2022-11-29T02:13:11.380Z,0.00
2022-11-29T02:14:11.378Z,0.00
2022-11-29T02:15:11.356Z,0.00
2022-11-29T02:16:11.399Z,0.00
2022-11-29T02:17:11.334Z,0.00
2022-11-29T02:18:11.340Z,0.00
2022-11-29T02:19:11.314Z,0.00
2022-11-29T02:20:11.338Z,0.00
2022-11-29T02:21:11.310Z,0.00
2022-11-29T02:22:11.309Z,0.00
2022-11-29T02:23:11.280Z,0.00
2022-11-29T02:24:11.277Z,0.00
2022-11-29T02:25:11.302Z,0.00
2022-11-29T02:26:11.256Z,0.00
2022-11-29T02:27:11.239Z,0.00
2022-11-29T02:28:11.219Z,0.00
2022-11-29T02:29:11.219Z,0.00
2022-11-29T02:30:11.201Z,0.00
2022-11-29T02:31:11.278Z,0.00
2022-11-29T02:32:11.190Z,0.00
2022-11-29T02:33:11.179Z,0.00
2022-11-29T02:34:11.144Z,0.00
2022-11-29T02:35:11.158Z,0.00
2022-11-29T02:36:11.131Z,0.00
2022-11-29T02:37:11.753Z,0.00
2022-11-29T02:38:11.117Z,0.00
2022-11-29T02:39:11.112Z,0.00
2022-11-29T02:40:11.098Z,0.00
2022-11-29T02:41:11.113Z,0.00
2022-11-29T02:42:11.076Z,0.00
2022-11-29T02:43:11.073Z,0.00
2022-11-29T02:44:11.047Z,0.00
2022-11-29T02:45:11.041Z,0.00
2022-11-29T02:46:11.077Z,0.00
2022-11-29T02:47:11.037Z,0.00
2022-11-29T02:48:11.020Z,0.00
2022-11-29T02:49:11.008Z,0.00
2022-11-29T02:50:10.982Z,0.00
2022-11-29T02:51:10.986Z,0.00
2022-11-29T02:52:10.981Z,0.00
2022-11-29T02:53:10.958Z,0.00
2022-11-29T02:54:10.947Z,0.00
2022-11-29T02:55:10.934Z,0.00
2022-11-29T02:56:10.923Z,0.00
2022-11-29T02:57:10.940Z,0.00
2022-11-29T02:58:10.900Z,0.00
2022-11-29T02:59:10.896Z,0.00
2022-11-29T03:00:10.882Z,0.00
2022-11-29T03:01:10.925Z,0.00
2022-11-29T03:02:10.901Z,0.00
2022-11-29T03:03:10.866Z,0.00
2022-11-29T03:04:10.862Z,0.00
2022-11-29T03:05:10.835Z,0.00
2022-11-29T03:06:10.811Z,0.00
2022-11-29T03:07:10.820Z,0.00
2022-11-29T03:08:10.806Z,0.00
2022-11-29T03:09:10.787Z,0.00
2022-11-29T03:10:10.770Z,0.00
2022-11-29T03:11:10.767Z,0.00
2022-11-29T03:12:10.762Z,0.00
2022-11-29T03:13:10.771Z,0.00
2022-11-29T03:14:10.719Z,0.00
2022-11-29T03:15:10.723Z,0.00
2022-11-29T03:16:10.741Z,0.00
2022-11-29T03:17:10.708Z,0.00
2022-11-29T03:18:10.705Z,0.00
2022-11-29T03:19:10.683Z,0.00
2022-11-29T03:20:10.664Z,0.00
2022-11-29T03:21:10.665Z,0.00
2022-11-29T03:22:10.636Z,0.00
2022-11-29T03:23:10.665Z,0.00
2022-11-29T03:24:10.624Z,0.00
2022-11-29T03:25:10.626Z,0.00
2022-11-29T03:26:10.598Z,0.00
2022-11-29T03:27:10.615Z,0.00
2022-11-29T03:28:10.584Z,0.00
2022-11-29T03:29:10.587Z,0.00
2022-11-29T03:30:10.582Z,0.00
2022-11-29T03:31:10.628Z,0.00
2022-11-29T03:32:10.538Z,0.00
2022-11-29T03:33:10.553Z,0.00
2022-11-29T03:34:10.508Z,0.00
2022-11-29T03:35:10.532Z,0.00
2022-11-29T03:36:10.501Z,0.00
2022-11-29T03:37:10.496Z,0.00
2022-11-29T03:38:10.510Z,0.00
2022-11-29T03:39:10.465Z,0.00
2022-11-29T03:40:10.462Z,0.00
2022-11-29T03:41:10.511Z,0.00
2022-11-29T03:42:10.428Z,0.00
2022-11-29T03:43:10.435Z,0.00
2022-11-29T03:44:10.413Z,0.00
2022-11-29T03:45:10.428Z,0.00
2022-11-29T03:46:10.480Z,0.00
2022-11-29T03:47:10.398Z,0.00
2022-11-29T03:48:10.404Z,0.00
2022-11-29T03:49:10.367Z,0.00
2022-11-29T03:50:10.342Z,0.00
2022-11-29T03:51:10.360Z,0.00
2022-11-29T03:52:10.325Z,0.00
2022-11-29T03:53:10.330Z,0.00
2022-11-29T03:54:10.313Z,0.00
2022-11-29T03:55:10.306Z,0.00
2022-11-29T03:56:10.296Z,0.00
2022-11-29T03:57:10.284Z,0.00
2022-11-29T03:58:10.300Z,0.00
2022-11-29T03:59:10.264Z,0.00
2022-11-29T04:00:10.239Z,0.00
2022-11-29T04:01:10.283Z,0.00
2022-11-29T04:02:10.232Z,0.00
2022-11-29T04:03:10.227Z,0.00
2022-11-29T04:04:10.245Z,0.00
2022-11-29T04:05:10.203Z,0.00
2022-11-29T04:06:10.176Z,0.00
2022-11-29T04:07:10.189Z,0.00
2022-11-29T04:08:10.219Z,0.00
2022-11-29T04:09:10.152Z,0.00
2022-11-29T04:10:10.167Z,0.00
2022-11-29T04:11:10.127Z,0.00
2022-11-29T04:12:10.137Z,0.00
2022-11-29T04:13:10.137Z,0.00
2022-11-29T04:14:10.127Z,0.00
2022-11-29T04:15:15.231Z,0.00
2022-11-29T04:16:10.143Z,0.00
2022-11-29T04:17:10.064Z,0.00
2022-11-29T04:18:10.066Z,0.00
2022-11-29T04:19:10.048Z,0.00
2022-11-29T04:20:10.056Z,0.00
2022-11-29T04:21:10.041Z,0.00
2022-11-29T04:22:10.008Z,0.00
2022-11-29T04:23:10.020Z,0.00
2022-11-29T04:24:09.986Z,0.00
2022-11-29T04:25:09.979Z,0.00
2022-11-29T04:26:09.981Z,0.00
2022-11-29T04:27:09.973Z,0.00
2022-11-29T04:28:09.950Z,0.00
2022-11-29T04:29:09.957Z,0.00
2022-11-29T04:30:09.926Z,0.00
2022-11-29T04:31:09.935Z,0.00
2022-11-29T04:32:09.902Z,0.00
2022-11-29T04:33:09.902Z,0.00
2022-11-29T04:34:09.888Z,0.00
2022-11-29T04:35:09.878Z,0.00
2022-11-29T04:36:09.857Z,0.00
2022-11-29T04:37:09.855Z,0.00
2022-11-29T04:38:09.833Z,0.00
2022-11-29T04:39:09.827Z,0.00
2022-11-29T04:40:09.833Z,0.00
2022-11-29T04:41:09.828Z,0.00
2022-11-29T04:42:09.787Z,0.00
2022-11-29T04:43:09.793Z,0.00
2022-11-29T04:44:09.773Z,0.00
2022-11-29T04:45:09.783Z,0.00
2022-11-29T04:46:09.810Z,0.00
2022-11-29T04:47:09.740Z,0.00
2022-11-29T04:48:09.733Z,0.00
2022-11-29T04:49:09.745Z,0.00
2022-11-29T04:50:09.704Z,0.00
2022-11-29T04:51:09.725Z,0.00
2022-11-29T04:52:09.683Z,0.00
2022-11-29T04:53:09.686Z,0.00
2022-11-29T04:54:09.698Z,0.00
2022-11-29T04:55:09.656Z,0.00
2022-11-29T04:56:09.650Z,0.00
2022-11-29T04:57:09.645Z,0.00
2022-11-29T04:58:09.620Z,0.00
2022-11-29T04:59:09.645Z,0.00
2022-11-29T05:00:09.600Z,0.00
2022-11-29T05:01:09.691Z,0.00
2022-11-29T05:02:09.577Z,0.00
2022-11-29T05:03:09.576Z,0.00
2022-11-29T05:04:09.582Z,0.00
2022-11-29T05:05:09.582Z,0.00
2022-11-29T05:06:09.534Z,0.00
2022-11-29T05:07:09.552Z,0.00
2022-11-29T05:08:09.514Z,0.00
2022-11-29T05:09:09.517Z,0.00
2022-11-29T05:10:09.512Z,0.00
2022-11-29T05:11:09.495Z,0.00
2022-11-29T05:12:09.480Z,0.00
2022-11-29T05:13:09.480Z,0.00
2022-11-29T05:14:09.474Z,0.00
2022-11-29T05:15:09.469Z,0.00
2022-11-29T05:16:09.464Z,0.00
2022-11-29T05:17:09.434Z,0.00
2022-11-29T05:18:09.412Z,0.00
2022-11-29T05:19:09.423Z,0.00
2022-11-29T05:20:09.404Z,0.00
2022-11-29T05:21:09.395Z,0.00
2022-11-29T05:22:09.360Z,0.00
2022-11-29T05:23:09.381Z,0.00
2022-11-29T05:24:09.365Z,0.00
2022-11-29T05:25:09.339Z,0.00
2022-11-29T05:26:09.326Z,0.00
2022-11-29T05:27:09.319Z,0.00
2022-11-29T05:28:10.396Z,0.00
2022-11-29T05:29:09.308Z,0.00
2022-11-29T05:30:09.294Z,0.00
2022-11-29T05:31:09.333Z,0.00
2022-11-29T05:32:09.261Z,0.00
2022-11-29T05:33:09.268Z,0.00
2022-11-29T05:34:09.242Z,0.00
2022-11-29T05:35:09.240Z,0.00
2022-11-29T05:36:09.242Z,0.00
2022-11-29T05:37:09.214Z,0.00
2022-11-29T05:38:09.199Z,0.00
2022-11-29T05:39:09.187Z,0.00
2022-11-29T05:40:09.176Z,0.00
2022-11-29T05:41:09.197Z,0.00
2022-11-29T05:42:09.150Z,0.00
2022-11-29T05:43:09.165Z,0.00
2022-11-29T05:44:09.236Z,0.00
2022-11-29T05:45:09.131Z,0.00
2022-11-29T05:46:09.240Z,0.00
2022-11-29T05:47:09.104Z,0.00
2022-11-29T05:48:09.123Z,0.00
2022-11-29T05:49:09.094Z,0.00
2022-11-29T05:50:09.069Z,0.00
2022-11-29T05:51:09.074Z,0.00
2022-11-29T05:52:09.058Z,0.00
2022-11-29T05:53:09.056Z,0.00
2022-11-29T05:54:09.025Z,0.00
2022-11-29T05:55:09.024Z,0.00
2022-11-29T05:56:09.014Z,0.00
2022-11-29T05:57:09.029Z,0.00
2022-11-29T05:58:08.981Z,0.00
2022-11-29T05:59:08.981Z,0.00
2022-11-29T06:00:08.964Z,0.00
2022-11-29T06:01:08.963Z,0.00
2022-11-29T06:02:09.005Z,0.00
2022-11-29T06:03:08.979Z,0.00
2022-11-29T06:04:13.298Z,0.00
2022-11-29T06:05:08.925Z,0.00
2022-11-29T06:06:08.908Z,0.00
2022-11-29T06:07:08.910Z,0.00
2022-11-29T06:08:08.882Z,0.00
2022-11-29T06:09:08.888Z,0.00
2022-11-29T06:10:08.857Z,0.00
2022-11-29T06:11:08.847Z,0.00
2022-11-29T06:12:08.853Z,0.00
2022-11-29T06:13:08.837Z,0.00
2022-11-29T06:14:08.807Z,0.00
2022-11-29T06:15:08.816Z,0.00
2022-11-29T06:16:08.816Z,0.00
2022-11-29T06:17:08.812Z,0.00
2022-11-29T06:18:08.771Z,0.00
2022-11-29T06:19:08.779Z,0.00
2022-11-29T06:20:08.761Z,0.00
2022-11-29T06:21:08.783Z,0.00
2022-11-29T06:22:08.735Z,0.00
2022-11-29T06:23:08.747Z,0.00
2022-11-29T06:24:08.705Z,0.00
2022-11-29T06:25:08.706Z,0.00
2022-11-29T06:26:08.682Z,0.00
2022-11-29T06:27:08.721Z,0.00
2022-11-29T06:28:08.671Z,0.00
2022-11-29T06:29:08.763Z,0.00
2022-11-29T06:30:08.645Z,0.00
2022-11-29T06:31:08.689Z,0.00
2022-11-29T06:32:08.624Z,0.00
2022-11-29T06:33:08.632Z,0.00
2022-11-29T06:34:08.623Z,0.00
2022-11-29T06:35:08.588Z,0.00
2022-11-29T06:36:08.587Z,0.00
2022-11-29T06:37:08.562Z,0.00
2022-11-29T06:38:08.571Z,0.00
2022-11-29T06:39:08.566Z,0.00
2022-11-29T06:40:08.555Z,0.00
2022-11-29T06:41:08.530Z,0.00
2022-11-29T06:42:08.528Z,0.00
2022-11-29T06:43:08.510Z,0.00
2022-11-29T06:44:08.505Z,0.00
2022-11-29T06:45:08.433Z,1.00
2022-11-29T06:46:08.434Z,1.00
2022-11-29T06:47:08.534Z,0.00
2022-11-29T06:48:08.480Z,0.00
2022-11-29T06:49:08.412Z,2.00
2022-11-29T06:50:08.485Z,1.00
2022-11-29T06:51:08.419Z,0.00
2022-11-29T06:52:08.373Z,2.00
2022-11-29T06:53:08.338Z,1.00
2022-11-29T06:54:08.369Z,3.00
2022-11-29T06:55:08.329Z,6.00
2022-11-29T06:56:08.346Z,8.00
2022-11-29T06:57:08.748Z,6.00
2022-11-29T06:58:08.515Z,5.00
2022-11-29T06:59:08.293Z,5.00
2022-11-29T07:00:08.443Z,7.00
2022-11-29T07:01:08.354Z,9.00
2022-11-29T07:02:08.359Z,15.00
2022-11-29T07:03:08.244Z,11.00
2022-11-29T07:04:08.239Z,14.00
2022-11-29T07:05:08.230Z,15.00
2022-11-29T07:06:08.214Z,16.00
2022-11-29T07:07:08.201Z,19.00
2022-11-29T07:08:08.191Z,20.00
2022-11-29T07:09:08.186Z,24.00
2022-11-29T07:10:13.451Z,25.00
2022-11-29T07:11:08.164Z,29.00
2022-11-29T07:12:08.154Z,30.00
2022-11-29T07:13:08.136Z,28.00
2022-11-29T07:14:08.148Z,28.00
2022-11-29T07:15:08.125Z,32.00
2022-11-29T07:16:08.178Z,35.00
2022-11-29T07:17:08.086Z,36.00
2022-11-29T07:18:08.094Z,45.00
2022-11-29T07:19:08.086Z,40.00
2022-11-29T07:20:08.092Z,37.00
2022-11-29T07:21:08.063Z,36.00
2022-11-29T07:22:08.045Z,43.00
2022-11-29T07:23:08.029Z,44.00
2022-11-29T07:24:08.015Z,43.00
2022-11-29T07:25:08.066Z,47.00
2022-11-29T07:26:08.050Z,52.00
2022-11-29T07:27:08.004Z,50.00
2022-11-29T07:28:07.980Z,50.00
2022-11-29T07:29:07.990Z,55.00
2022-11-29T07:30:07.974Z,59.00
2022-11-29T07:31:07.962Z,58.00
2022-11-29T07:32:07.947Z,65.00
2022-11-29T07:33:07.913Z,71.00
2022-11-29T07:34:07.918Z,75.00
2022-11-29T07:35:07.892Z,69.00
2022-11-29T07:36:07.905Z,64.00
2022-11-29T07:37:07.895Z,67.00
2022-11-29T07:38:07.896Z,65.00
2022-11-29T07:39:07.865Z,69.00
2022-11-29T07:40:07.902Z,73.00
2022-11-29T07:41:07.869Z,87.00
2022-11-29T07:42:07.828Z,95.00
2022-11-29T07:43:07.879Z,87.00
2022-11-29T07:44:07.804Z,95.00
2022-11-29T07:45:07.782Z,101.00
2022-11-29T07:46:07.804Z,94.00
2022-11-29T07:47:07.775Z,97.00
2022-11-29T07:48:07.867Z,119.00
2022-11-29T07:49:07.750Z,127.00
2022-11-29T07:50:07.750Z,143.00
2022-11-29T07:51:07.759Z,158.00
2022-11-29T07:52:07.735Z,193.00
2022-11-29T07:53:07.708Z,197.00
2022-11-29T07:54:07.712Z,191.00
2022-11-29T07:55:07.701Z,166.00
2022-11-29T07:56:07.683Z,136.00
2022-11-29T07:57:07.662Z,125.00
2022-11-29T07:58:07.684Z,151.00
2022-11-29T07:59:07.694Z,189.00
2022-11-29T08:00:07.682Z,211.00
2022-11-29T08:01:07.668Z,205.00
2022-11-29T08:02:11.718Z,184.00
2022-11-29T08:03:07.598Z,178.00
2022-11-29T08:04:07.599Z,169.00
2022-11-29T08:05:07.576Z,165.00
2022-11-29T08:06:07.574Z,201.00
2022-11-29T08:07:07.590Z,223.00
2022-11-29T08:08:07.564Z,258.00
2022-11-29T08:09:07.539Z,273.00
2022-11-29T08:10:07.559Z,292.00
2022-11-29T08:11:07.526Z,280.00
2022-11-29T08:12:07.523Z,275.00
2022-11-29T08:13:07.490Z,297.00
2022-11-29T08:14:07.489Z,273.00
2022-11-29T08:15:07.473Z,255.00
2022-11-29T08:16:07.545Z,241.00
2022-11-29T08:17:07.444Z,256.00
2022-11-29T08:18:07.458Z,265.00
2022-11-29T08:19:07.436Z,256.00
2022-11-29T08:20:07.446Z,253.00
2022-11-29T08:21:07.414Z,252.00
2022-11-29T08:22:07.407Z,296.00
2022-11-29T08:23:07.392Z,286.00
2022-11-29T08:24:07.383Z,273.00
2022-11-29T08:25:07.382Z,293.00
2022-11-29T08:26:07.362Z,287.00
2022-11-29T08:27:07.362Z,269.00
2022-11-29T08:28:07.360Z,272.00
2022-11-29T08:29:07.336Z,270.00
2022-11-29T08:30:07.321Z,266.00
2022-11-29T08:31:07.350Z,220.00
2022-11-29T08:32:07.295Z,247.00
2022-11-29T08:33:07.429Z,336.00
2022-11-29T08:34:07.284Z,333.00
2022-11-29T08:35:07.267Z,300.00
2022-11-29T08:36:07.258Z,300.00
2022-11-29T08:37:07.252Z,294.00
2022-11-29T08:38:07.234Z,328.00
2022-11-29T08:39:09.464Z,310.00
2022-11-29T08:40:07.201Z,292.00
2022-11-29T08:41:07.189Z,320.00
2022-11-29T08:42:07.226Z,367.00
2022-11-29T08:43:07.165Z,351.00
2022-11-29T08:44:07.189Z,382.00
2022-11-29T08:45:07.138Z,351.00
2022-11-29T08:46:07.174Z,335.00
2022-11-29T08:47:07.138Z,346.00
2022-11-29T08:48:07.227Z,348.00
2022-11-29T08:49:07.152Z,369.00
2022-11-29T08:50:07.121Z,360.00
2022-11-29T08:51:07.086Z,438.00
2022-11-29T08:52:07.085Z,420.00
2022-11-29T08:53:07.068Z,417.00
2022-11-29T08:54:07.103Z,379.00
2022-11-29T08:55:07.049Z,376.00
2022-11-29T08:56:31.921Z,401.00
2022-11-29T08:58:07.088Z,473.00
2022-11-29T08:59:07.008Z,473.00
2022-11-29T09:00:07.008Z,504.00
2022-11-29T09:01:07.053Z,511.00
2022-11-29T09:02:07.038Z,479.00
2022-11-29T09:03:06.954Z,473.00
2022-11-29T09:04:06.968Z,451.00
2022-11-29T09:05:07.061Z,438.00
2022-11-29T09:06:12.030Z,401.00
2022-11-29T09:07:06.935Z,390.00
2022-11-29T09:08:06.951Z,441.00
2022-11-29T09:09:06.904Z,472.00
2022-11-29T09:10:06.900Z,411.00
2022-11-29T09:11:06.906Z,415.00
2022-11-29T09:12:06.875Z,430.00
2022-11-29T09:13:06.858Z,409.00
2022-11-29T09:14:06.847Z,385.00
2022-11-29T09:15:06.836Z,398.00
2022-11-29T09:16:06.871Z,423.00
2022-11-29T09:17:06.809Z,409.00
2022-11-29T09:18:06.809Z,355.00
2022-11-29T09:19:06.792Z,357.00
2022-11-29T09:20:06.791Z,428.00
2022-11-29T09:21:06.765Z,424.00
2022-11-29T09:22:06.794Z,456.00
2022-11-29T09:23:06.747Z,503.00
2022-11-29T09:24:06.817Z,531.00
2022-11-29T09:25:06.750Z,525.00
2022-11-29T09:26:06.759Z,540.00
2022-11-29T09:27:06.741Z,538.00
2022-11-29T09:28:06.764Z,509.00
2022-11-29T09:29:06.699Z,505.00
2022-11-29T09:30:06.709Z,495.00
2022-11-29T09:31:06.669Z,503.00
2022-11-29T09:32:06.690Z,508.00
2022-11-29T09:33:06.641Z,505.00
2022-11-29T09:34:06.986Z,566.00
2022-11-29T09:35:06.619Z,688.00
2022-11-29T09:36:06.630Z,775.00
2022-11-29T09:37:06.594Z,651.00
2022-11-29T09:38:06.611Z,818.00
2022-11-29T09:39:06.580Z,938.00
2022-11-29T09:40:06.576Z,915.00
2022-11-29T09:41:06.593Z,801.00
2022-11-29T09:42:06.564Z,724.00
2022-11-29T09:43:06.554Z,694.00
2022-11-29T09:44:06.539Z,641.00
2022-11-29T09:45:06.518Z,672.00
2022-11-29T09:46:06.523Z,667.00
2022-11-29T09:47:06.490Z,624.00
2022-11-29T09:48:06.502Z,574.00
2022-11-29T09:49:06.464Z,612.00
2022-11-29T09:50:06.474Z,581.00
2022-11-29T09:51:06.455Z,589.00
2022-11-29T09:52:06.432Z,589.00
2022-11-29T09:53:06.459Z,633.00
2022-11-29T09:54:06.430Z,559.00
2022-11-29T09:55:06.410Z,547.00
2022-11-29T09:56:06.431Z,625.00
2022-11-29T09:57:10.545Z,549.00
2022-11-29T09:58:06.375Z,534.00
2022-11-29T09:59:06.387Z,495.00
2022-11-29T10:00:06.352Z,445.00
2022-11-29T10:01:06.396Z,410.00
2022-11-29T10:02:06.382Z,414.00
2022-11-29T10:03:06.319Z,429.00
2022-11-29T10:04:06.344Z,428.00
2022-11-29T10:05:06.308Z,420.00
2022-11-29T10:06:06.299Z,430.00
2022-11-29T10:07:06.275Z,452.00
2022-11-29T10:08:06.287Z,470.00
2022-11-29T10:09:06.281Z,489.00
2022-11-29T10:10:06.287Z,523.00
2022-11-29T10:11:06.233Z,570.00
2022-11-29T10:12:06.237Z,574.00
2022-11-29T10:13:06.213Z,612.00
2022-11-29T10:14:06.212Z,586.00
2022-11-29T10:15:06.239Z,564.00
2022-11-29T10:16:06.271Z,544.00
2022-11-29T10:17:06.160Z,574.00
2022-11-29T10:18:06.169Z,548.00
2022-11-29T10:19:06.144Z,561.00
2022-11-29T10:20:06.146Z,559.00
2022-11-29T10:21:06.126Z,539.00
2022-11-29T10:22:06.139Z,508.00
2022-11-29T10:23:06.109Z,509.00
2022-11-29T10:24:06.099Z,510.00
2022-11-29T10:25:06.079Z,513.00
2022-11-29T10:26:06.100Z,513.00
2022-11-29T10:27:06.059Z,475.00
2022-11-29T10:28:06.053Z,557.00
2022-11-29T10:29:06.042Z,563.00
2022-11-29T10:30:06.042Z,551.00
2022-11-29T10:31:06.112Z,555.00
2022-11-29T10:32:10.272Z,584.00
2022-11-29T10:33:06.116Z,601.00
2022-11-29T10:34:06.002Z,740.00
2022-11-29T10:35:05.977Z,813.00
2022-11-29T10:36:05.985Z,815.00
2022-11-29T10:37:05.969Z,789.00
2022-11-29T10:39:08.822Z,769.00
2022-11-29T10:40:05.939Z,699.00
2022-11-29T10:41:05.907Z,654.00
2022-11-29T10:42:05.945Z,621.00
2022-11-29T10:43:05.891Z,604.00
2022-11-29T10:44:05.885Z,602.00
2022-11-29T10:45:05.873Z,560.00
2022-11-29T10:46:05.962Z,650.00
2022-11-29T10:47:10.703Z,740.00
2022-11-29T10:48:05.924Z,763.00
2022-11-29T10:49:07.840Z,757.00
2022-11-29T10:50:05.837Z,754.00
2022-11-29T10:51:05.812Z,723.00
2022-11-29T10:52:05.849Z,713.00
2022-11-29T10:53:05.825Z,656.00
2022-11-29T10:54:05.774Z,603.00
2022-11-29T10:55:05.775Z,644.00
2022-11-29T10:56:07.688Z,804.00
2022-11-29T10:57:05.771Z,830.00
2022-11-29T10:58:05.746Z,757.00
2022-11-29T10:59:05.730Z,808.00
2022-11-29T11:00:05.724Z,770.00
2022-11-29T11:01:05.738Z,710.00
2022-11-29T11:02:05.687Z,682.00
2022-11-29T11:03:05.711Z,677.00
2022-11-29T11:04:05.669Z,755.00
2022-11-29T11:05:05.666Z,792.00
2022-11-29T11:06:05.647Z,765.00
2022-11-29T11:07:05.658Z,711.00
2022-11-29T11:08:05.649Z,682.00
2022-11-29T11:09:05.637Z,738.00
2022-11-29T11:10:05.610Z,748.00
2022-11-29T11:11:05.642Z,725.00
2022-11-29T11:12:05.587Z,720.00
2022-11-29T11:13:05.588Z,762.00
2022-11-29T11:14:05.568Z,823.00
2022-11-29T11:15:05.685Z,763.00
2022-11-29T11:16:05.551Z,671.00
2022-11-29T11:17:05.591Z,601.00
2022-11-29T11:18:05.519Z,598.00
2022-11-29T11:19:05.537Z,558.00
2022-11-29T11:20:05.512Z,543.00
2022-11-29T11:21:05.511Z,567.00
2022-11-29T11:22:05.479Z,598.00
2022-11-29T11:23:05.480Z,624.00
2022-11-29T11:24:05.478Z,653.00
2022-11-29T11:25:05.573Z,700.00
2022-11-29T11:26:05.433Z,728.00
2022-11-29T11:27:05.442Z,696.00
2022-11-29T11:28:05.412Z,710.00
2022-11-29T11:29:05.527Z,694.00
2022-11-29T11:30:05.395Z,713.00
2022-11-29T11:31:05.409Z,754.00
2022-11-29T11:32:05.379Z,856.00
2022-11-29T11:33:05.375Z,886.00
2022-11-29T11:34:05.561Z,821.00
2022-11-29T11:35:05.500Z,755.00
2022-11-29T11:36:05.342Z,702.00
2022-11-29T11:37:05.330Z,675.00
2022-11-29T11:38:05.335Z,661.00
2022-11-29T11:39:05.325Z,642.00
2022-11-29T11:40:05.427Z,635.00
2022-11-29T11:41:05.308Z,705.00
2022-11-29T11:42:05.278Z,739.00
2022-11-29T11:43:05.304Z,699.00
2022-11-29T11:44:14.887Z,682.00
2022-11-29T11:45:05.281Z,664.00
2022-11-29T11:46:08.113Z,656.00
2022-11-29T11:47:05.226Z,611.00
2022-11-29T11:48:05.236Z,608.00
2022-11-29T11:49:05.780Z,605.00
2022-11-29T11:50:05.181Z,615.00
2022-11-29T11:51:05.243Z,595.00
2022-11-29T11:52:05.179Z,579.00
2022-11-29T11:53:05.159Z,624.00
2022-11-29T11:54:05.156Z,642.00
2022-11-29T11:55:05.139Z,623.00
2022-11-29T11:56:05.115Z,583.00
2022-11-29T11:57:05.126Z,584.00
2022-11-29T11:58:09.673Z,611.00
2022-11-29T11:59:05.112Z,611.00
2022-11-29T12:00:07.264Z,651.00
2022-11-29T12:01:05.907Z,624.00
2022-11-29T12:02:05.063Z,601.00
2022-11-29T12:03:05.199Z,652.00
2022-11-29T12:04:05.026Z,632.00
2022-11-29T12:05:05.061Z,653.00
2022-11-29T12:06:05.018Z,670.00
2022-11-29T12:07:05.008Z,660.00
2022-11-29T12:08:08.134Z,698.00
2022-11-29T12:09:04.988Z,646.00
2022-11-29T12:10:04.963Z,701.00
2022-11-29T12:11:07.424Z,761.00
2022-11-29T12:12:04.950Z,708.00
2022-11-29T12:13:04.961Z,706.00
2022-11-29T12:14:04.928Z,757.00
2022-11-29T12:15:04.931Z,781.00
2022-11-29T12:16:05.017Z,680.00
2022-11-29T12:17:04.909Z,667.00
2022-11-29T12:18:04.883Z,759.00
2022-11-29T12:19:04.880Z,759.00
2022-11-29T12:20:04.883Z,711.00
2022-11-29T12:21:04.857Z,673.00
2022-11-29T12:22:04.846Z,676.00
2022-11-29T12:23:04.831Z,630.00
2022-11-29T12:24:04.828Z,575.00
2022-11-29T12:25:04.834Z,535.00
2022-11-29T12:26:04.848Z,570.00
2022-11-29T12:27:04.880Z,591.00
2022-11-29T12:28:04.774Z,593.00
2022-11-29T12:29:04.785Z,595.00
2022-11-29T12:30:04.764Z,605.00
2022-11-29T12:31:04.834Z,655.00
2022-11-29T12:32:04.737Z,640.00
2022-11-29T12:33:04.758Z,569.00
2022-11-29T12:34:04.706Z,650.00
2022-11-29T12:35:04.717Z,663.00
2022-11-29T12:36:04.705Z,660.00
2022-11-29T12:37:04.687Z,670.00
2022-11-29T12:38:04.671Z,706.00
2022-11-29T12:39:04.661Z,695.00
2022-11-29T12:40:04.671Z,629.00
2022-11-29T12:41:04.683Z,667.00
2022-11-29T12:42:04.618Z,610.00
2022-11-29T12:43:04.636Z,603.00
2022-11-29T12:44:04.605Z,584.00
2022-11-29T12:45:04.642Z,617.00
2022-11-29T12:46:04.654Z,809.00
2022-11-29T12:47:34.586Z,744.00
2022-11-29T12:48:04.575Z,621.00
2022-11-29T12:49:04.566Z,602.00
2022-11-29T12:50:04.540Z,623.00
2022-11-29T12:51:04.547Z,598.00
2022-11-29T12:52:04.520Z,541.00
2022-11-29T12:53:04.525Z,700.00
2022-11-29T12:54:04.506Z,721.00
2022-11-29T12:55:04.511Z,611.00
2022-11-29T12:56:04.485Z,546.00
2022-11-29T12:57:04.504Z,521.00
2022-11-29T12:58:04.456Z,554.00